Terminal Aerodrome Forecast
Issued by NWS

Home | Current Version | Previous Version | Text Only | Print | Product List | Glossary Off
Versions: 1 2 3 4 5 6 7 8 9 10 11 12 13 14 15 16 17 18 19 20 21

000
FTUS43 KMPX 221500 AAA
TAFAXN
TAF AMD
KAXN 221527Z 2215/2312 14013KT 1/2SM FG VV002
      TEMPO 2215/2218 1 1/2SM BR OVC003
     FM221900 13012KT 2SM -RASN BR OVC003
     FM222300 10012KT 2SM -SN BR OVC003
     FM230800 05012KT 2SM -SN BR OVC003=

USA.gov is the U.S. government's official web portal to all federal, state and local government web resources and services.